Lech, Austria
Current Conditions -  °F | °C
As of 12:50 PM on Sunday 23 Nov 2014 (Local Time) from LSZR Reporting Station
Moderate Fog Moderate Fog  
Wind Chill: 41°   Ceiling: 200
Heat Index: 41°   Visibility: 0.25mi
Dew Point: 41°   Wind: 3mph
Humidity: 100%   Direction: 90°E
Pressure: 30.21"   Gusts: NA
Location:  47.21°N, 10.14°E
Report Text: LSZR 231050Z 09003KT 050V120 0400 R10/0750N FG VV002 05/05 Q1023 NOSIG RMK D
Loading
Personal Weather Stations






























Interactive Weather Map New forecast layout! Learn more

10-Day Weather Forecast

Advertisements
Track Severe Weather on mobile